Terminal Aerodrome Forecast
Issued by NWS Pendleton, OR

Home | Current Version | Previous Version | Text Only | Print | Product List | Glossary On
Versions: 1 2 3 4 5 6 7 8 9 10 11 12 13 14 15
000
FTUS46 KPDT 251720
TAFPDT
TAF
KPDT 251720Z 2518/2618 VRB04KT P6SM BKN070
     FM260300 19006KT P6SM BKN070 BKN200
     FM260800 20006KT P6SM BKN050
     FM261600 20008KT 6SM -SHSN OVC030=

USA.gov is the U.S. government's official web portal to all federal, state and local government web resources and services.